Horncastle, United Kingdom
Current Conditions -  °F | °C
As of 6:50 PM on Sunday 21 Dec 2014 (Local Time) from EGXC Reporting Station
Broken Clouds Broken Clouds  
Wind Chill: 50°   Ceiling: 24000
Heat Index: 50°   Visibility: 6mi
Dew Point: 46°   Wind: 24mph
Humidity: 87%   Direction: 230°SW
Pressure: 29.97"   Gusts: NA
Location:  53.21°N, 0.12°W
Report Text: EGXC 211850Z 23021KT 9999 FEW030 BKN240 10/08 Q1015 BLU
Loading
Personal Weather Stations






























Interactive Weather Map New forecast layout! Learn more

10-Day Weather Forecast

Advertisements
Track Severe Weather on mobile